Terminal Aerodrome Forecast
Issued by NWS

Home | Current Version | Previous Version | Text Only | Print | Product List | Glossary Off
Versions: 1 2 3 4 5 6 7 8 9 10 11 12 13 14 15 16 17 18 19 20 21 22 23 24 25 26 27 28 29 30 31 32 33 34 35 36 37

000
FTUS43 KLOT 250200 AAA
TAFMDW
TAF AMD
KMDW 250221Z 2502/2524 25018G31KT P6SM VCSH OVC017
      TEMPO 2502/2504 4SM -SHSN
     FM250400 26015G28KT P6SM VCSH OVC020
     FM250600 26014G24KT P6SM VCSH BKN025 OVC035
      TEMPO 2506/2509 2SM -SHSN BKN015 OVC025
     FM251400 27010KT P6SM SCT020 BKN035=

USA.gov is the U.S. government's official web portal to all federal, state and local government web resources and services.